createdAt,value
2019-01-31T00:02:31.165Z,-3.50
2019-01-31T00:05:11.350Z,-3.60
2019-01-31T00:07:54.529Z,-3.60
2019-01-31T00:10:40.065Z,-3.60
2019-01-31T00:13:28.178Z,-3.60
2019-01-31T00:16:18.973Z,-3.70
2019-01-31T00:19:01.165Z,-3.70
2019-01-31T00:22:05.416Z,-3.70
2019-01-31T00:24:44.932Z,-3.70
2019-01-31T00:27:41.229Z,-3.70
2019-01-31T00:30:31.337Z,-3.60
2019-01-31T00:33:20.907Z,-3.70
2019-01-31T00:36:05.598Z,-3.70
2019-01-31T00:38:56.335Z,-3.60
2019-01-31T00:41:27.648Z,-3.60
2019-01-31T00:44:14.671Z,-3.60
2019-01-31T00:46:58.633Z,-3.60
2019-01-31T00:49:57.533Z,-3.60
2019-01-31T00:52:56.517Z,-3.60
2019-01-31T00:55:40.872Z,-3.50
2019-01-31T00:58:16.787Z,-3.50
2019-01-31T01:01:11.633Z,-3.60
2019-01-31T01:03:49.969Z,-3.70
2019-01-31T01:06:36.892Z,-3.70
2019-01-31T01:09:22.364Z,-3.70
2019-01-31T01:12:15.989Z,-3.70
2019-01-31T01:15:07.428Z,-3.70
2019-01-31T01:17:52.561Z,-3.70
2019-01-31T01:20:27.699Z,-3.70
2019-01-31T01:23:13.369Z,-3.70
2019-01-31T01:25:55.756Z,-3.70
2019-01-31T01:28:33.542Z,-3.60
2019-01-31T01:31:30.384Z,-3.70
2019-01-31T01:34:23.020Z,-3.70
2019-01-31T01:37:19.625Z,-3.70
2019-01-31T01:40:09.544Z,-3.70
2019-01-31T01:43:01.018Z,-3.70
2019-01-31T01:45:45.996Z,-3.70
2019-01-31T01:48:30.581Z,-3.70
2019-01-31T01:51:20.014Z,-3.70
2019-01-31T01:54:21.763Z,-3.70
2019-01-31T01:56:56.676Z,-3.70
2019-01-31T01:59:39.899Z,-3.80
2019-01-31T02:02:32.397Z,-3.80
2019-01-31T02:05:26.763Z,-3.70
2019-01-31T02:08:07.601Z,-3.70
2019-01-31T02:11:02.568Z,-3.70
2019-01-31T02:13:54.341Z,-3.70
2019-01-31T02:16:43.912Z,-3.70
2019-01-31T02:19:43.504Z,-3.70
2019-01-31T02:22:31.456Z,-3.60
2019-01-31T02:25:11.402Z,-3.70
2019-01-31T02:28:05.852Z,-3.60
2019-01-31T02:30:48.976Z,-3.70
2019-01-31T02:33:31.250Z,-3.60
2019-01-31T02:36:18.293Z,-3.60
2019-01-31T02:39:06.436Z,-3.50
2019-01-31T02:41:57.386Z,-3.50
2019-01-31T02:44:47.850Z,-3.50
2019-01-31T02:47:24.363Z,-3.60
2019-01-31T02:50:19.670Z,-3.60
2019-01-31T02:53:10.806Z,-3.60
2019-01-31T02:55:58.944Z,-3.60
2019-01-31T02:58:31.817Z,-3.60
2019-01-31T03:01:18.537Z,-3.60
2019-01-31T03:04:06.413Z,-3.60
2019-01-31T03:06:45.327Z,-3.60
2019-01-31T03:09:35.493Z,-3.60
2019-01-31T03:12:10.185Z,-3.50
2019-01-31T03:15:02.570Z,-3.50
2019-01-31T03:18:01.237Z,-3.50
2019-01-31T03:20:55.125Z,-3.40
2019-01-31T03:23:52.555Z,-3.40
2019-01-31T03:26:49.100Z,-3.40
2019-01-31T03:29:37.930Z,-3.50
2019-01-31T03:32:45.282Z,-3.40
2019-01-31T03:35:50.084Z,-3.40
2019-01-31T03:38:48.688Z,-3.40
2019-01-31T03:41:41.227Z,-3.40
2019-01-31T03:44:29.786Z,-3.40
2019-01-31T03:47:12.899Z,-3.40
2019-01-31T03:49:50.379Z,-3.40
2019-01-31T03:52:45.576Z,-3.40
2019-01-31T03:55:32.163Z,-3.40
2019-01-31T03:58:31.018Z,-3.40
2019-01-31T04:01:19.831Z,-3.40
2019-01-31T04:03:53.337Z,-3.40
2019-01-31T04:06:30.290Z,-3.40
2019-01-31T04:09:02.136Z,-3.40
2019-01-31T04:11:33.068Z,-3.40
2019-01-31T04:14:05.301Z,-3.40
2019-01-31T04:16:37.677Z,-3.40
2019-01-31T04:19:10.812Z,-3.40
2019-01-31T04:21:42.160Z,-3.40
2019-01-31T04:24:13.101Z,-3.50
2019-01-31T04:26:46.731Z,-3.40
2019-01-31T04:29:17.651Z,-3.40
2019-01-31T04:31:48.561Z,-3.50
2019-01-31T04:34:19.211Z,-3.50
2019-01-31T04:36:50.126Z,-3.50
2019-01-31T04:39:21.560Z,-3.50
2019-01-31T04:41:51.913Z,-3.50
2019-01-31T04:44:26.032Z,-3.50
2019-01-31T04:46:58.086Z,-3.50
2019-01-31T04:49:30.975Z,-3.50
2019-01-31T04:52:01.102Z,-3.50
2019-01-31T04:54:31.525Z,-3.50
2019-01-31T04:57:02.969Z,-3.50
2019-01-31T04:59:36.425Z,-3.50
2019-01-31T05:02:07.849Z,-3.50
2019-01-31T05:04:39.701Z,-3.50
2019-01-31T05:07:11.979Z,-3.60
2019-01-31T05:09:47.293Z,-3.60
2019-01-31T05:12:17.683Z,-3.60
2019-01-31T05:14:48.857Z,-3.70
2019-01-31T05:17:19.737Z,-3.70
2019-01-31T05:19:52.656Z,-3.60
2019-01-31T05:22:25.401Z,-3.60
2019-01-31T05:24:59.189Z,-3.60
2019-01-31T05:27:32.161Z,-3.70
2019-01-31T05:30:04.726Z,-3.70
2019-01-31T05:32:41.390Z,-3.70
2019-01-31T05:35:12.641Z,-3.70
2019-01-31T05:37:45.529Z,-3.70
2019-01-31T05:40:18.082Z,-3.60
2019-01-31T05:42:52.426Z,-3.70
2019-01-31T05:45:23.860Z,-3.70
2019-01-31T05:47:54.641Z,-3.70
2019-01-31T05:50:26.658Z,-3.60
2019-01-31T05:52:57.993Z,-3.50
2019-01-31T05:55:29.545Z,-3.50
2019-01-31T05:58:00.283Z,-3.50
2019-01-31T06:00:38.073Z,-3.50
2019-01-31T06:03:10.801Z,-3.50
2019-01-31T06:05:42.999Z,-3.50
2019-01-31T06:08:15.048Z,-3.50
2019-01-31T06:10:45.945Z,-3.40
2019-01-31T06:13:19.554Z,-3.40
2019-01-31T06:15:51.592Z,-3.40
2019-01-31T06:18:21.397Z,-3.40
2019-01-31T06:20:53.163Z,-3.40
2019-01-31T06:23:24.719Z,-3.40
2019-01-31T06:25:59.401Z,-3.40
2019-01-31T06:28:30.285Z,-3.40
2019-01-31T06:31:03.082Z,-3.40
2019-01-31T06:33:35.670Z,-3.40
2019-01-31T06:36:06.527Z,-3.40
2019-01-31T06:38:37.271Z,-3.40
2019-01-31T06:41:17.985Z,-3.50
2019-01-31T06:43:39.467Z,-3.40
2019-01-31T06:46:11.572Z,-3.40
2019-01-31T06:48:40.880Z,-3.40
2019-01-31T06:51:11.945Z,-3.50
2019-01-31T06:53:45.360Z,-3.40
2019-01-31T06:56:16.250Z,-3.40
2019-01-31T06:58:49.173Z,-3.40
2019-01-31T07:01:21.687Z,-3.40
2019-01-31T07:03:53.537Z,-3.40
2019-01-31T07:06:24.428Z,-3.40
2019-01-31T07:08:55.287Z,-3.40
2019-01-31T07:11:30.313Z,-3.40
2019-01-31T07:14:03.664Z,-3.40
2019-01-31T07:16:35.255Z,-3.40
2019-01-31T07:19:06.815Z,-3.40
2019-01-31T07:21:38.617Z,-3.40
2019-01-31T07:24:11.230Z,-3.40
2019-01-31T07:26:42.302Z,-3.40
2019-01-31T07:29:16.745Z,-3.40
2019-01-31T07:31:47.362Z,-3.40
2019-01-31T07:34:16.673Z,-3.40
2019-01-31T07:36:46.097Z,-3.40
2019-01-31T07:39:18.303Z,-3.40
2019-01-31T07:41:49.892Z,-3.30
2019-01-31T07:44:19.501Z,-3.30
2019-01-31T07:46:48.560Z,-3.30
2019-01-31T07:49:20.424Z,-3.30
2019-01-31T07:51:51.406Z,-3.30
2019-01-31T07:54:20.936Z,-3.30
2019-01-31T07:56:50.592Z,-3.30
2019-01-31T07:59:20.143Z,-3.10
2019-01-31T08:01:48.917Z,-3.10
2019-01-31T08:04:20.552Z,-3.00
2019-01-31T08:06:52.537Z,-2.80
2019-01-31T08:09:25.835Z,-2.60
2019-01-31T08:11:58.525Z,-2.60
2019-01-31T08:14:31.628Z,-2.50
2019-01-31T08:17:03.249Z,-2.50
2019-01-31T08:19:35.177Z,-2.40
2019-01-31T08:22:07.656Z,-2.40
2019-01-31T08:24:39.604Z,-2.30
2019-01-31T08:27:11.377Z,-2.20
2019-01-31T08:29:42.330Z,-2.20
2019-01-31T08:32:15.948Z,-2.10
2019-01-31T08:34:47.018Z,-2.20
2019-01-31T08:37:19.573Z,-2.10
2019-01-31T08:39:50.172Z,-2.10
2019-01-31T08:42:22.034Z,-2.10
2019-01-31T08:44:54.032Z,-2.10
2019-01-31T08:47:24.378Z,-2.10
2019-01-31T08:49:56.329Z,-2.10
2019-01-31T08:52:27.884Z,-2.10
2019-01-31T08:54:58.704Z,-2.10
2019-01-31T08:57:31.757Z,-2.10
2019-01-31T09:00:03.208Z,-2.10
2019-01-31T09:02:34.763Z,-2.10
2019-01-31T09:05:06.361Z,-2.10
2019-01-31T09:07:38.014Z,-2.10
2019-01-31T09:10:10.792Z,-2.10
2019-01-31T09:12:44.081Z,-2.10
2019-01-31T09:15:15.802Z,-2.00
2019-01-31T09:17:46.913Z,-2.00
2019-01-31T09:20:19.576Z,-2.00
2019-01-31T09:23:16.152Z,-2.00
2019-01-31T09:26:05.601Z,-1.90
2019-01-31T09:28:48.778Z,-1.90
2019-01-31T09:31:37.886Z,-1.90
2019-01-31T09:34:12.949Z,-1.80
2019-01-31T09:37:10.937Z,-1.80
2019-01-31T09:40:02.824Z,-1.90
2019-01-31T09:42:48.761Z,-1.90
2019-01-31T09:45:46.081Z,-1.90
2019-01-31T09:48:42.866Z,-1.90
2019-01-31T09:51:34.877Z,-1.80
2019-01-31T09:54:11.383Z,-1.80
2019-01-31T09:57:13.301Z,-1.90
2019-01-31T10:00:00.461Z,-1.90
2019-01-31T10:02:48.182Z,-1.90
2019-01-31T10:05:25.208Z,-1.90
2019-01-31T10:08:29.969Z,-1.90
2019-01-31T10:11:03.854Z,-1.90
2019-01-31T10:13:55.570Z,-1.90
2019-01-31T10:16:46.855Z,-1.90
2019-01-31T10:19:33.327Z,-1.90
2019-01-31T10:22:22.307Z,-1.90
2019-01-31T10:25:15.821Z,-1.90
2019-01-31T10:28:18.666Z,-1.90
2019-01-31T10:31:06.951Z,-1.90
2019-01-31T10:33:56.074Z,-1.80
2019-01-31T10:36:28.582Z,-1.90
2019-01-31T10:39:10.274Z,-1.80
2019-01-31T10:41:55.159Z,-1.80
2019-01-31T10:44:44.128Z,-1.80
2019-01-31T10:47:42.793Z,-1.80
2019-01-31T10:50:17.232Z,-1.80
2019-01-31T10:52:52.107Z,-1.80
2019-01-31T10:55:40.256Z,-1.80
2019-01-31T10:58:27.833Z,-1.80
2019-01-31T11:01:06.448Z,-1.80
2019-01-31T11:03:50.058Z,-1.80
2019-01-31T11:06:39.044Z,-1.80
2019-01-31T11:09:39.754Z,-1.80
2019-01-31T11:12:27.967Z,-1.80
2019-01-31T11:15:10.837Z,-1.80
2019-01-31T11:17:48.886Z,-1.80
2019-01-31T11:20:24.680Z,-1.80
2019-01-31T11:23:21.020Z,-1.80
2019-01-31T11:26:13.810Z,-1.80
2019-01-31T11:29:02.214Z,-1.80
2019-01-31T11:31:54.696Z,-1.80
2019-01-31T11:34:33.242Z,-1.80
2019-01-31T11:37:10.956Z,-1.80
2019-01-31T11:39:58.822Z,-1.80
2019-01-31T11:42:55.113Z,-1.80
2019-01-31T11:45:42.832Z,-1.80
2019-01-31T11:48:33.211Z,-1.80
2019-01-31T11:51:20.305Z,-1.80
2019-01-31T11:53:59.517Z,-1.80
2019-01-31T11:56:47.809Z,-1.80
2019-01-31T11:59:20.009Z,-1.80
2019-01-31T12:01:50.267Z,-1.80
2019-01-31T12:04:21.893Z,-1.80
2019-01-31T12:06:53.965Z,-1.80
2019-01-31T12:09:24.875Z,-1.80
2019-01-31T12:11:56.144Z,-1.80
2019-01-31T12:14:26.965Z,-1.80
2019-01-31T12:16:59.570Z,-1.80
2019-01-31T12:19:31.080Z,-1.80
2019-01-31T12:22:02.220Z,-1.80
2019-01-31T12:24:34.619Z,-1.80
2019-01-31T12:27:05.370Z,-1.80
2019-01-31T12:29:38.089Z,-1.80
2019-01-31T12:32:12.534Z,-1.80
2019-01-31T12:34:44.842Z,-1.90
2019-01-31T12:37:19.774Z,-1.80
2019-01-31T12:39:52.147Z,-1.90
2019-01-31T12:42:25.205Z,-1.90
2019-01-31T12:44:55.742Z,-1.90
2019-01-31T12:47:28.074Z,-1.90
2019-01-31T12:50:01.280Z,-1.90
2019-01-31T12:52:32.729Z,-1.90
2019-01-31T12:57:35.145Z,-1.90
2019-01-31T13:00:09.338Z,-2.00
2019-01-31T13:02:41.647Z,-2.00
2019-01-31T13:05:15.247Z,-2.00
2019-01-31T13:07:48.008Z,-2.00
2019-01-31T13:10:21.673Z,-2.00
2019-01-31T13:12:53.707Z,-2.00
2019-01-31T13:15:24.859Z,-2.00
2019-01-31T13:17:56.106Z,-2.00
2019-01-31T13:20:28.553Z,-2.00
2019-01-31T13:22:59.801Z,-2.00
2019-01-31T13:25:29.921Z,-2.00
2019-01-31T13:28:02.025Z,-2.00
2019-01-31T13:30:33.987Z,-2.00
2019-01-31T13:33:06.317Z,-2.00
2019-01-31T13:35:38.941Z,-2.00
2019-01-31T13:38:12.680Z,-2.00
2019-01-31T13:40:44.601Z,-2.00
2019-01-31T13:43:16.616Z,-2.00
2019-01-31T13:45:48.850Z,-2.00
2019-01-31T13:48:20.271Z,-2.00
2019-01-31T13:50:51.076Z,-2.00
2019-01-31T13:53:22.707Z,-2.10
2019-01-31T13:55:53.874Z,-2.00
2019-01-31T13:58:24.950Z,-2.00
2019-01-31T14:00:57.462Z,-2.00
2019-01-31T14:03:28.077Z,-2.10
2019-01-31T14:06:01.591Z,-2.00
2019-01-31T14:08:33.271Z,-2.00
2019-01-31T14:11:06.516Z,-2.10
2019-01-31T14:13:36.997Z,-2.10
2019-01-31T14:16:08.624Z,-2.10
2019-01-31T14:18:39.765Z,-2.10
2019-01-31T14:21:13.273Z,-2.10
2019-01-31T14:23:45.747Z,-2.10
2019-01-31T14:26:18.484Z,-2.10
2019-01-31T14:28:49.228Z,-2.10
2019-01-31T14:31:21.669Z,-2.10
2019-01-31T14:33:54.655Z,-2.10
2019-01-31T14:36:24.714Z,-2.10
2019-01-31T14:38:56.585Z,-2.10
2019-01-31T14:41:27.813Z,-2.10
2019-01-31T14:43:58.737Z,-2.10
2019-01-31T14:46:32.437Z,-2.10
2019-01-31T14:49:08.841Z,-2.10
2019-01-31T14:51:38.893Z,-2.10
2019-01-31T14:54:09.928Z,-2.10
2019-01-31T14:56:43.037Z,-2.10
2019-01-31T14:59:15.667Z,-2.10
2019-01-31T15:01:46.324Z,-2.10
2019-01-31T15:04:17.868Z,-2.10
2019-01-31T15:06:49.696Z,-2.10
2019-01-31T15:09:24.271Z,-2.10
2019-01-31T15:11:57.798Z,-2.10
2019-01-31T15:14:32.232Z,-2.00
2019-01-31T15:17:02.093Z,-2.10
2019-01-31T15:19:32.415Z,-2.00
2019-01-31T15:22:03.990Z,-2.00
2019-01-31T15:24:35.895Z,-2.10
2019-01-31T15:29:43.596Z,-2.00
2019-01-31T15:32:15.568Z,-2.00
2019-01-31T15:34:47.068Z,-2.00
2019-01-31T15:37:18.216Z,-2.00
2019-01-31T15:39:51.488Z,-2.00
2019-01-31T15:42:23.213Z,-2.00
2019-01-31T15:44:53.853Z,-2.00
2019-01-31T15:47:24.949Z,-2.00
2019-01-31T15:49:54.108Z,-2.10
2019-01-31T15:52:23.856Z,-2.10
2019-01-31T15:54:55.018Z,-2.00
2019-01-31T15:57:27.728Z,-2.00
2019-01-31T16:00:00.356Z,-2.00
2019-01-31T16:02:30.344Z,-1.90
2019-01-31T16:05:02.192Z,-1.90
2019-01-31T16:07:33.237Z,-1.90
2019-01-31T16:10:06.264Z,-1.90
2019-01-31T16:12:38.681Z,-2.00
2019-01-31T16:15:10.589Z,-2.00
2019-01-31T16:17:43.223Z,-1.90
2019-01-31T16:20:14.020Z,-1.90
2019-01-31T16:22:45.928Z,-1.90
2019-01-31T16:25:19.752Z,-1.90
2019-01-31T16:27:51.290Z,-1.90
2019-01-31T16:30:23.662Z,-1.90
2019-01-31T16:32:56.273Z,-1.90
2019-01-31T16:35:27.280Z,-1.90
2019-01-31T16:38:01.676Z,-1.90
2019-01-31T16:40:32.128Z,-1.90
2019-01-31T16:43:06.025Z,-1.90
2019-01-31T16:45:40.767Z,-1.90
2019-01-31T16:48:12.685Z,-1.90
2019-01-31T16:50:46.958Z,-1.90
2019-01-31T16:53:19.401Z,-1.90
2019-01-31T16:55:55.035Z,-1.80
2019-01-31T16:58:26.577Z,-1.80
2019-01-31T17:00:58.633Z,-1.80
2019-01-31T17:03:30.441Z,-1.80
2019-01-31T17:06:03.859Z,-1.80
2019-01-31T17:08:35.984Z,-1.80
2019-01-31T17:11:07.966Z,-1.80
2019-01-31T17:13:39.703Z,-1.80
2019-01-31T17:16:12.136Z,-1.70
2019-01-31T17:18:44.278Z,-1.80
2019-01-31T17:21:17.739Z,-1.80
2019-01-31T17:23:50.089Z,-1.70
2019-01-31T17:26:21.489Z,-1.70
2019-01-31T17:28:53.108Z,-1.60
2019-01-31T17:31:24.876Z,-1.60
2019-01-31T17:33:56.951Z,-1.60
2019-01-31T17:36:33.196Z,-1.60
2019-01-31T17:39:04.969Z,-1.70
2019-01-31T17:41:35.604Z,-1.60
2019-01-31T17:44:07.485Z,-1.50
2019-01-31T17:46:38.176Z,-1.50
2019-01-31T17:49:10.032Z,-1.50
2019-01-31T17:51:41.791Z,-1.50
2019-01-31T17:54:12.785Z,-1.50
2019-01-31T17:56:44.753Z,-1.50
2019-01-31T17:59:15.541Z,-1.50
2019-01-31T18:01:47.736Z,-1.40
2019-01-31T18:04:17.724Z,-1.40
2019-01-31T18:06:47.075Z,-1.40
2019-01-31T18:09:16.749Z,-1.30
2019-01-31T18:11:47.722Z,-1.20
2019-01-31T18:14:18.113Z,-1.20
2019-01-31T18:16:49.654Z,-1.20
2019-01-31T18:19:21.328Z,-1.20
2019-01-31T18:21:54.313Z,-1.20
2019-01-31T18:24:25.754Z,-1.20
2019-01-31T18:27:00.172Z,-1.20
2019-01-31T18:29:31.200Z,-1.00
2019-01-31T18:32:03.306Z,-1.00
2019-01-31T18:34:35.836Z,-1.00
2019-01-31T18:37:08.581Z,-1.00
2019-01-31T18:39:40.976Z,-0.90
2019-01-31T18:42:10.505Z,-0.90
2019-01-31T18:44:43.735Z,-0.90
2019-01-31T18:47:13.616Z,-0.90
2019-01-31T18:49:44.529Z,-0.80
2019-01-31T18:52:17.873Z,-0.80
2019-01-31T18:54:47.873Z,-0.80
2019-01-31T18:57:18.604Z,-0.80
2019-01-31T18:59:50.106Z,-0.70
2019-01-31T19:02:21.134Z,-0.70
2019-01-31T19:04:52.024Z,-0.70
2019-01-31T19:07:23.101Z,-0.70
2019-01-31T19:09:55.057Z,-0.70
2019-01-31T19:12:28.361Z,-0.70
2019-01-31T19:14:59.773Z,-0.60
2019-01-31T19:17:30.439Z,-0.60
2019-01-31T19:20:01.934Z,-0.60
2019-01-31T19:22:35.642Z,-0.70
2019-01-31T19:25:10.741Z,-0.70
2019-01-31T19:28:03.849Z,-0.60
2019-01-31T19:30:37.377Z,-0.60
2019-01-31T19:33:09.089Z,-0.60
2019-01-31T19:35:39.778Z,-0.60
2019-01-31T19:38:09.135Z,-0.60
2019-01-31T19:40:42.090Z,-0.60
2019-01-31T19:43:12.234Z,-0.60
2019-01-31T19:45:42.935Z,-0.60
2019-01-31T19:48:12.489Z,-0.60
2019-01-31T19:50:46.264Z,-0.60
2019-01-31T19:53:18.057Z,-0.60
2019-01-31T19:55:50.613Z,-0.60
2019-01-31T19:58:21.201Z,-0.60
2019-01-31T20:00:52.045Z,-0.60
2019-01-31T20:03:24.017Z,-0.60
2019-01-31T20:05:55.284Z,-0.60
2019-01-31T20:08:26.735Z,-0.60
2019-01-31T20:10:58.798Z,-0.60
2019-01-31T20:13:30.940Z,-0.70
2019-01-31T20:16:01.239Z,-0.60
2019-01-31T20:18:30.342Z,-0.70
2019-01-31T20:21:01.220Z,-0.70
2019-01-31T20:23:32.933Z,-0.70
2019-01-31T20:26:03.168Z,-0.70
2019-01-31T20:28:40.781Z,-0.70
2019-01-31T20:31:13.264Z,-0.70
2019-01-31T20:33:45.098Z,-0.70
2019-01-31T20:36:17.594Z,-0.70
2019-01-31T20:38:48.751Z,-0.70
2019-01-31T20:41:20.120Z,-0.80
2019-01-31T20:43:49.854Z,-0.70
2019-01-31T20:46:23.680Z,-0.70
2019-01-31T20:48:58.771Z,-0.70
2019-01-31T20:51:32.620Z,-0.70
2019-01-31T20:54:02.976Z,-0.70
2019-01-31T20:56:35.061Z,-0.70
2019-01-31T20:59:08.591Z,-0.60
2019-01-31T21:01:40.105Z,-0.70
2019-01-31T21:04:12.457Z,-0.70
2019-01-31T21:06:43.982Z,-0.70
2019-01-31T21:09:15.070Z,-0.70
2019-01-31T21:11:45.561Z,-0.70
2019-01-31T21:14:19.417Z,-0.70
2019-01-31T21:16:51.869Z,-0.70
2019-01-31T21:19:23.855Z,-0.80
2019-01-31T21:21:55.754Z,-0.70
2019-01-31T21:24:26.709Z,-0.70
2019-01-31T21:26:58.476Z,-0.70
2019-01-31T21:29:30.421Z,-0.70
2019-01-31T21:32:06.838Z,-0.60
2019-01-31T21:34:36.433Z,-0.60
2019-01-31T21:37:05.676Z,-0.60
2019-01-31T21:39:35.748Z,-0.60
2019-01-31T21:42:07.899Z,-0.60
2019-01-31T21:44:39.572Z,-0.60
2019-01-31T21:47:10.825Z,-0.60
2019-01-31T21:49:43.088Z,-0.60
2019-01-31T21:52:15.175Z,-0.60
2019-01-31T21:54:48.168Z,-0.60
2019-01-31T21:57:18.484Z,-0.60
2019-01-31T21:59:49.539Z,-0.70
2019-01-31T22:02:20.310Z,-0.60
2019-01-31T22:04:50.649Z,-0.70
2019-01-31T22:07:20.601Z,-0.70
2019-01-31T22:09:51.530Z,-0.70
2019-01-31T22:12:25.229Z,-0.70
2019-01-31T22:14:59.656Z,-0.70
2019-01-31T22:17:30.557Z,-0.80
2019-01-31T22:20:02.241Z,-0.80
2019-01-31T22:22:34.621Z,-0.80
2019-01-31T22:25:05.082Z,-0.80
2019-01-31T22:27:35.037Z,-0.80
2019-01-31T22:30:06.223Z,-0.80
2019-01-31T22:32:37.813Z,-0.80
2019-01-31T22:35:13.452Z,-0.80
2019-01-31T22:37:45.944Z,-0.80
2019-01-31T22:40:16.400Z,-0.80
2019-01-31T22:42:47.473Z,-0.80
2019-01-31T22:45:20.028Z,-0.80
2019-01-31T22:47:51.321Z,-0.80
2019-01-31T22:50:22.728Z,-0.80
2019-01-31T22:52:54.665Z,-0.80
2019-01-31T22:55:26.204Z,-0.70
2019-01-31T22:57:58.683Z,-0.70
2019-01-31T23:00:56.358Z,-0.70
2019-01-31T23:03:28.915Z,-0.70
2019-01-31T23:05:58.178Z,-0.70
2019-01-31T23:08:29.789Z,-0.70
2019-01-31T23:11:04.138Z,-0.70
2019-01-31T23:13:36.713Z,-0.70
2019-01-31T23:16:07.801Z,-0.70
2019-01-31T23:18:39.807Z,-0.70
2019-01-31T23:21:10.869Z,-0.70
2019-01-31T23:23:39.866Z,-0.70
2019-01-31T23:26:10.501Z,-0.70
2019-01-31T23:28:43.130Z,-0.70
2019-01-31T23:31:12.356Z,-0.80
2019-01-31T23:33:42.820Z,-0.80
2019-01-31T23:36:15.400Z,-0.80
2019-01-31T23:38:47.889Z,-0.80
2019-01-31T23:41:22.033Z,-0.80
2019-01-31T23:43:54.167Z,-0.80
2019-01-31T23:46:25.746Z,-0.80
2019-01-31T23:48:58.347Z,-0.80
2019-01-31T23:51:29.567Z,-0.80
2019-01-31T23:54:01.751Z,-0.90
2019-01-31T23:56:33.793Z,-0.90
2019-01-31T23:59:06.256Z,-1.00
